KMHS/MHS METAR and TAF weather

Enter ICAO airport designator
Station Type Date Time Source
KMHS METAR 2022/12/04 04:56 UTC NOAA

KMHS 040456Z AUTO 00000KT 4SM BR OVC002 02/01 A2985 RMK AO2 SLP134 T00220006


Station Type Date Time Source
KMHS Decoded METAR 2022/12/04 04:56 UTC NOAA

MOUNT SHASTA, CA, United States (KMHS) 41-19N 122-19W 1078M
Dec 03, 2022 - 11:56 PM EST / 2022.12.04 0456 UTC
Wind: Calm:0
Visibility: 4 mile(s):0
Sky conditions: overcast
Weather: mist
Temperature: 36.0 F (2.2 C)
Dew Point: 33.1 F (0.6 C)
Relative Humidity: 89%
Pressure (altimeter): 29.85 in. Hg (1010 hPa)
ob: KMHS 040456Z AUTO 00000KT 4SM BR OVC002 02/01 A2985 RMK AO2 SLP134 T00220006
cycle: 5

Station Type Date Time Source
KMHS TAF UTC NOAA

Error!

Example: see airport list